Terminal Aerodrome Forecast
Issued by NWS Wilmington, OH

Current Version | Previous Version | Graphics & Text | Print | Product List | Glossary On
Versions: 1 2 3 4 5 6 7 8 9 10 11 12 13 14 15
000
FTUS41 KILN 241500 AAA
TAFILN
TAF AMD
KILN 241500Z 2415/2512 19011KT P6SM BKN140
     FM241800 19011G17KT P6SM SCT100 BKN200
     FM242300 16009KT P6SM BKN200
     FM251100 18013KT P6SM SCT040 BKN080=

USA.gov is the U.S. government's official web portal to all federal, state and local government web resources and services.